Time;durP1;ratioP1;P1;durP2;ratioP2;P2;SDS_P1;SDS_P2;PMS_P1;PMS_P2;Temp;Humidity;BMP_temperature;BMP_pressure;BME280_temperature;BME280_humidity;BME280_pressure;Samples;Min_cycle;Max_cycle;Signal;HPM_P1;HPM_P2
2022/02/03 00:00:39;;;;;;;8.50;2.75;;;;;;;10.97;63.50;101880.66;5038610;28;20076;-66
2022/02/03 00:05:49;;;;;;;10.90;2.83;;;;;;;10.86;63.29;101863.38;5036286;28;20168;-65
2022/02/03 00:08:35;;;;;;;11.15;2.60;;;;;;;10.82;63.68;101862.31;5033770;28;20057;-67
2022/02/03 00:21:59;;;;;;;9.70;2.70;;;;;;;10.82;63.61;101847.72;5029037;28;20061;-66
2022/02/03 00:25:42;;;;;;;6.88;2.90;;;;;;;10.53;63.77;101847.63;5018857;28;20053;-66
2022/02/03 00:28:30;;;;;;;6.22;2.47;;;;;;;10.55;63.19;101850.94;5002437;28;20049;-66
2022/02/03 00:31:06;;;;;;;7.68;2.65;;;;;;;10.64;63.39;101851.97;5037542;28;20056;-67
2022/02/03 00:34:26;;;;;;;10.77;2.80;;;;;;;10.52;62.85;101846.00;5004901;28;20057;-67
2022/02/03 00:36:39;;;;;;;9.38;2.80;;;;;;;10.74;62.58;101840.88;5009588;28;20064;-66
2022/02/03 00:52:37;;;;;;;5.88;2.35;;;;;;;10.64;63.00;101837.38;5036979;28;20647;-66
2022/02/03 00:55:05;;;;;;;9.68;3.00;;;;;;;10.55;63.32;101831.66;5036670;28;20080;-66
2022/02/03 00:57:42;;;;;;;10.30;3.20;;;;;;;10.54;63.16;101834.69;5036813;28;20065;-66
2022/02/03 01:00:13;;;;;;;8.57;2.55;;;;;;;10.53;63.24;101824.78;5037030;28;20056;-66
2022/02/03 01:02:47;;;;;;;9.20;2.60;;;;;;;10.48;63.32;101820.13;5037075;28;20049;-66
2022/02/03 01:05:15;;;;;;;8.35;2.42;;;;;;;10.52;63.00;101825.88;5018873;28;20564;-65
2022/02/03 01:07:48;;;;;;;12.93;3.22;;;;;;;10.62;62.77;101828.56;5036794;28;20204;-66
2022/02/03 01:10:21;;;;;;;11.40;2.60;;;;;;;10.48;63.14;101835.84;5036688;28;20065;-66
2022/02/03 01:45:24;;;;;;;9.40;2.72;;;;;;;10.19;63.64;101811.78;5035856;28;20056;-66
2022/02/03 01:49:05;;;;;;;8.25;2.63;;;;;;;10.34;63.15;101821.88;5036074;28;20045;-69
2022/02/03 01:53:43;;;;;;;7.13;2.35;;;;;;;10.26;63.86;101813.38;5036244;28;20057;-65
2022/02/03 01:56:12;;;;;;;10.13;2.60;;;;;;;10.40;63.26;101806.97;5035986;28;20049;-66
2022/02/03 01:58:46;;;;;;;8.27;2.53;;;;;;;10.42;63.09;101802.00;5017714;28;20049;-64
2022/02/03 02:01:25;;;;;;;8.45;2.42;;;;;;;10.31;63.51;101807.84;5035877;28;20060;-66
2022/02/03 02:04:07;;;;;;;10.20;2.85;;;;;;;10.44;63.13;101810.81;5035749;28;20416;-65
2022/02/03 02:07:11;;;;;;;13.35;2.70;;;;;;;10.32;62.94;101804.00;5028329;28;20046;-65
2022/02/03 02:10:00;;;;;;;7.97;2.30;;;;;;;10.18;63.23;101801.88;5034379;28;20535;-65
2022/02/03 02:13:05;;;;;;;11.95;3.53;;;;;;;9.92;63.93;101810.53;5040973;28;20048;-65
2022/02/03 02:38:11;;;;;;;8.63;2.22;;;;;;;10.37;61.73;101744.22;5015625;28;20122;-65
2022/02/03 02:44:07;;;;;;;12.25;2.70;;;;;;;10.27;62.25;101715.94;4976986;28;20066;-65
2022/02/03 02:46:45;;;;;;;11.77;2.35;;;;;;;10.30;62.34;101718.94;5014138;28;20057;-65
2022/02/03 02:49:23;;;;;;;8.00;2.58;;;;;;;10.16;62.48;101712.41;5015351;28;20046;-66
2022/02/03 02:51:56;;;;;;;8.88;2.08;;;;;;;10.00;62.99;101692.41;5024229;28;20053;-64
2022/02/03 03:01:29;;;;;;;8.68;2.38;;;;;;;9.81;63.31;101672.19;4973710;28;20050;-65
2022/02/03 03:04:18;;;;;;;8.85;2.55;;;;;;;9.77;63.88;101662.84;5021634;28;20557;-66
2022/02/03 03:36:48;;;;;;;7.35;2.53;;;;;;;9.68;64.47;101597.69;5034572;28;20444;-63
2022/02/03 03:39:15;;;;;;;10.05;2.70;;;;;;;9.70;64.02;101592.72;5017172;28;20057;-64
2022/02/03 03:41:45;;;;;;;7.25;2.67;;;;;;;9.75;64.20;101599.03;5017130;28;20048;-64
2022/02/03 03:44:14;;;;;;;;;;;;;;;9.78;63.95;101594.88;5033355;28;20069;-65
2022/02/03 03:46:46;;;;;;;11.95;3.33;;;;;;;9.74;64.11;101591.06;5032730;28;19921;-63
2022/02/03 03:49:25;;;;;;;9.23;2.60;;;;;;;9.83;64.11;101592.09;5016327;28;20058;-64
2022/02/03 03:52:06;;;;;;;6.82;2.63;;;;;;;9.88;63.89;101587.38;5035788;28;20488;-64
2022/02/03 03:54:44;;;;;;;;;;;;;;;9.89;63.76;101586.25;5038351;28;20052;-64
2022/02/03 03:57:40;;;;;;;9.80;2.70;;;;;;;9.89;63.82;101578.00;5037972;28;19921;-63
2022/02/03 04:39:34;;;;;;;8.85;2.60;;;;;;;9.82;64.11;101547.25;5022493;28;20061;-66
2022/02/03 04:43:02;;;;;;;11.80;2.72;;;;;;;9.88;64.36;101534.25;5036570;28;20065;-66
2022/02/03 05:00:40;;;;;;;6.50;2.38;;;;;;;9.72;64.47;101511.56;4995234;28;20050;-66
2022/02/03 05:03:48;;;;;;;10.40;2.72;;;;;;;9.90;64.31;101502.56;4994210;28;20675;-66
2022/02/03 05:07:05;;;;;;;8.93;2.67;;;;;;;9.71;64.70;101501.66;5027900;28;20488;-66
2022/02/03 05:10:13;;;;;;;8.45;2.78;;;;;;;9.63;64.53;101491.28;5021849;28;20049;-68
2022/02/03 05:13:43;;;;;;;12.02;2.60;;;;;;;9.63;64.57;101501.47;5043868;28;20064;-66
2022/02/03 05:17:25;;;;;;;;;;;;;;;9.68;64.44;101491.25;5004368;28;20042;-66
2022/02/03 05:42:53;;;;;;;13.32;4.30;;;;;;;9.54;64.81;101487.50;5035964;28;20049;-66
2022/02/03 06:01:27;;;;;;;9.00;4.25;;;;;;;9.46;64.16;101477.13;5035597;28;20605;-65
2022/02/03 06:14:41;;;;;;;10.77;6.10;;;;;;;9.40;64.65;101453.53;5015648;28;20417;-64
2022/02/03 06:27:54;;;;;;;10.77;5.65;;;;;;;9.29;65.52;101420.91;5035512;28;20046;-64
2022/02/03 06:30:21;;;;;;;9.98;6.03;;;;;;;9.49;64.81;101429.81;5032475;28;20041;-65
2022/02/03 06:32:49;;;;;;;11.15;5.00;;;;;;;9.42;64.87;101423.00;5024177;28;20058;-65
2022/02/03 06:35:19;;;;;;;15.93;5.70;;;;;;;9.20;65.62;101412.47;5032373;28;20076;-64
2022/02/03 06:37:48;;;;;;;10.15;5.20;;;;;;;9.26;65.53;101397.56;5028652;28;20484;-64
2022/02/03 06:40:17;;;;;;;10.35;4.95;;;;;;;9.49;65.17;101399.56;5032442;28;20060;-65
2022/02/03 06:42:45;;;;;;;11.88;4.82;;;;;;;9.46;64.98;101394.66;5035007;28;20050;-65
2022/02/03 06:45:23;;;;;;;10.30;5.00;;;;;;;9.61;64.67;101390.91;5033898;28;20053;-65
2022/02/03 06:48:09;;;;;;;9.13;5.00;;;;;;;9.56;64.57;101391.78;5013931;28;20501;-65
2022/02/03 06:50:44;;;;;;;9.73;5.25;;;;;;;9.47;64.51;101396.28;5029160;28;20045;-67
2022/02/03 06:55:52;;;;;;;11.07;7.18;;;;;;;9.44;65.09;101394.09;5016039;28;20045;-65
2022/02/03 06:58:29;;;;;;;;;;;;;;;9.48;65.01;101397.09;5034897;28;20060;-65
2022/02/03 07:01:35;;;;;;;9.30;4.80;;;;;;;9.49;64.41;101390.47;5034761;28;19921;-65
2022/02/03 07:03:57;;;;;;;8.55;5.05;;;;;;;9.37;64.41;101403.78;5045868;28;20061;-65
2022/02/03 07:06:24;;;;;;;9.07;5.18;;;;;;;9.12;65.17;101404.81;5034020;28;20064;-65
2022/02/03 07:08:53;;;;;;;9.02;5.55;;;;;;;9.20;65.12;101411.66;5033966;28;20060;-64
2022/02/03 07:11:23;;;;;;;10.82;5.78;;;;;;;9.32;64.69;101418.41;5034378;28;20060;-65
2022/02/03 07:13:50;;;;;;;12.02;6.47;;;;;;;9.09;65.38;101408.97;5036481;28;20515;-65
2022/02/03 07:16:17;;;;;;;10.10;6.20;;;;;;;9.08;65.84;101406.53;5033061;28;20049;-65
2022/02/03 07:18:45;;;;;;;11.48;6.30;;;;;;;9.20;65.58;101406.16;5043478;28;20056;-65
2022/02/03 07:21:13;;;;;;;8.40;6.18;;;;;;;9.13;65.57;101404.53;5022791;28;20045;-65
2022/02/03 07:23:41;;;;;;;10.93;6.45;;;;;;;9.14;66.18;101410.84;5040126;28;20057;-65
2022/02/03 07:26:08;;;;;;;13.52;6.93;;;;;;;9.24;65.48;101415.47;5031909;28;20459;-65
2022/02/03 07:28:35;;;;;;;10.60;6.38;;;;;;;8.99;66.05;101411.00;5038745;28;20053;-65
2022/02/03 07:31:03;;;;;;;8.88;5.95;;;;;;;8.95;66.10;101420.91;5035149;28;20048;-65
2022/02/03 07:33:32;;;;;;;9.02;6.13;;;;;;;9.13;66.87;101423.78;5032342;28;20054;-63
2022/02/03 07:35:59;;;;;;;11.55;8.52;;;;;;;9.07;65.98;101424.09;5037655;28;20045;-65
2022/02/03 07:38:27;;;;;;;19.83;12.02;;;;;;;9.12;65.67;101423.25;5020314;28;20061;-65
2022/02/03 07:40:54;;;;;;;9.23;6.30;;;;;;;9.08;65.88;101412.03;5037731;28;20050;-66
2022/02/03 07:43:22;;;;;;;8.48;6.15;;;;;;;9.29;65.27;101413.50;5019938;28;20053;-64
2022/02/03 07:45:52;;;;;;;11.02;6.10;;;;;;;9.43;65.94;101419.94;5037140;28;20056;-64
2022/02/03 07:48:20;;;;;;;10.98;7.57;;;;;;;9.49;65.32;101416.06;5026961;28;20045;-64
2022/02/03 07:50:48;;;;;;;9.30;6.80;;;;;;;9.58;65.66;101413.50;5037563;28;20057;-64
2022/02/03 07:53:15;;;;;;;24.65;15.82;;;;;;;9.66;65.13;101418.38;5020318;28;20053;-63
2022/02/03 07:55:43;;;;;;;11.25;7.93;;;;;;;9.54;65.15;101420.69;5036168;28;20064;-64
2022/02/03 07:58:10;;;;;;;21.08;9.70;;;;;;;9.58;65.01;101408.00;5036939;28;20050;-64
2022/02/03 08:00:37;;;;;;;11.10;7.30;;;;;;;9.55;65.28;101400.34;5039209;28;20045;-65
2022/02/03 08:03:14;;;;;;;10.00;6.32;;;;;;;9.47;64.85;101410.03;5028887;28;20056;-64
2022/02/03 08:05:46;;;;;;;10.32;6.38;;;;;;;9.50;64.76;101403.94;5036830;28;20060;-63
2022/02/03 08:08:29;;;;;;;9.60;6.63;;;;;;;9.50;65.03;101411.38;5036261;28;20065;-66
2022/02/03 08:11:01;;;;;;;9.55;6.75;;;;;;;9.54;64.63;101404.19;5020428;28;20048;-64
2022/02/03 08:16:02;;;;;;;10.57;6.70;;;;;;;9.29;65.91;101412.66;5037077;28;20506;-64
2022/02/03 08:18:40;;;;;;;9.25;6.80;;;;;;;9.01;65.72;101406.03;5035950;28;20056;-62
2022/02/03 08:21:10;;;;;;;14.80;7.60;;;;;;;9.41;65.13;101413.94;5019402;28;20504;-64
2022/02/03 08:26:24;;;;;;;14.27;7.47;;;;;;;9.42;65.35;101406.50;5036136;28;20057;-63
2022/02/03 08:31:26;;;;;;;15.20;7.93;;;;;;;9.43;65.23;101417.19;5036100;28;20040;-64
2022/02/03 08:33:55;;;;;;;10.85;7.90;;;;;;;9.29;66.29;101420.91;5036539;28;20053;-63
2022/02/03 08:36:24;;;;;;;11.10;7.82;;;;;;;9.27;66.01;101418.47;5037009;28;20041;-63
2022/02/03 08:38:56;;;;;;;16.15;9.18;;;;;;;9.79;64.35;101415.75;5036091;28;20053;-63
2022/02/03 08:41:25;;;;;;;13.35;8.60;;;;;;;9.39;65.95;101412.56;5035334;28;20034;-64
2022/02/03 08:43:52;;;;;;;12.30;8.43;;;;;;;9.18;65.49;101403.69;5036207;28;20404;-64
2022/02/03 08:46:24;;;;;;;11.77;8.00;;;;;;;8.96;66.02;101384.09;5015190;28;20045;-64
2022/02/03 08:48:53;;;;;;;12.77;7.53;;;;;;;9.48;65.61;101388.84;5036983;28;20049;-63
2022/02/03 08:51:22;;;;;;;13.68;8.18;;;;;;;9.37;65.25;101384.53;5036470;28;20056;-64
2022/02/03 08:53:53;;;;;;;16.38;10.48;;;;;;;9.43;64.89;101380.66;5036745;28;20508;-63
2022/02/03 08:56:32;;;;;;;12.93;8.73;;;;;;;9.89;63.88;101379.06;5036133;28;20041;-63
2022/02/03 09:51:39;;;;;;;13.02;9.45;;;;;;;9.86;64.45;101347.44;5034729;28;20100;-64
2022/02/03 09:56:40;;;;;;;25.47;15.10;;;;;;;9.96;63.70;101344.56;5028336;28;20049;-64
2022/02/03 09:59:14;;;;;;;28.60;16.40;;;;;;;10.11;63.68;101335.34;5017152;28;20064;-64
2022/02/03 10:02:30;;;;;;;23.92;12.95;;;;;;;10.06;63.52;101340.84;5035567;28;20052;-63
2022/02/03 10:04:58;;;;;;;18.48;9.82;;;;;;;10.29;62.87;101328.22;5023924;28;20058;-64
2022/02/03 10:07:35;;;;;;;13.68;9.93;;;;;;;9.94;63.59;101330.28;5016415;28;20053;-63
2022/02/03 10:10:08;;;;;;;13.50;9.45;;;;;;;10.30;63.08;101330.69;5008667;28;20053;-64
2022/02/03 10:12:37;;;;;;;14.98;9.65;;;;;;;10.32;62.14;101333.13;5037919;28;20052;-62
2022/02/03 10:15:07;;;;;;;14.07;9.73;;;;;;;10.24;62.41;101334.59;5029383;28;20125;-64
2022/02/03 10:17:40;;;;;;;14.55;9.82;;;;;;;10.12;63.21;101340.56;5016980;28;20053;-64
2022/02/03 10:20:14;;;;;;;20.63;10.93;;;;;;;9.52;64.33;101356.94;5034934;28;20053;-64
2022/02/03 10:22:46;;;;;;;16.75;10.25;;;;;;;9.94;64.04;101348.72;5032695;28;20057;-64
2022/02/03 10:25:24;;;;;;;18.98;10.55;;;;;;;9.99;63.44;101354.16;5030558;28;20047;-63
2022/02/03 10:28:02;;;;;;;16.40;10.30;;;;;;;9.78;64.20;101356.34;5008487;28;20045;-64
2022/02/03 10:30:36;;;;;;;24.73;15.40;;;;;;;10.00;63.85;101345.63;5034360;28;20041;-64
2022/02/03 10:33:04;;;;;;;16.73;11.55;;;;;;;9.94;63.70;101330.28;5034979;28;20045;-63
2022/02/03 10:35:39;;;;;;;15.15;10.18;;;;;;;9.78;64.61;101341.78;5024340;28;20492;-63
2022/02/03 10:46:49;;;;;;;16.98;10.75;;;;;;;9.69;64.30;101365.53;5033921;28;20052;-69
2022/02/03 10:49:57;;;;;;;16.25;11.10;;;;;;;9.82;65.00;101365.66;5017462;28;20049;-69
2022/02/03 11:03:27;;;;;;;17.52;11.38;;;;;;;9.57;65.01;101335.66;5032564;28;20065;-70
2022/02/03 11:10:41;;;;;;;16.55;11.35;;;;;;;9.40;66.23;101310.56;5033876;28;19925;-69
2022/02/03 11:13:10;;;;;;;20.95;11.48;;;;;;;9.75;65.38;101312.91;5036019;28;20045;-69
2022/02/03 11:15:38;;;;;;;17.58;11.88;;;;;;;9.90;64.09;101306.41;5033586;28;20084;-69
2022/02/03 11:18:07;;;;;;;18.98;12.93;;;;;;;9.77;64.01;101294.19;5033177;28;20041;-70
2022/02/03 11:20:41;;;;;;;17.35;12.00;;;;;;;9.69;64.61;101291.25;5031821;28;20057;-73
2022/02/03 11:23:29;;;;;;;17.55;12.32;;;;;;;9.80;64.32;101299.09;5025338;28;20052;-68
2022/02/03 11:28:46;;;;;;;20.27;13.55;;;;;;;9.55;65.19;101282.06;5029090;28;20053;-65
2022/02/03 11:39:37;;;;;;;20.33;13.55;;;;;;;9.15;66.77;101290.75;5014578;28;20046;-68
2022/02/03 12:23:36;;;;;;;24.15;16.73;;;;;;;8.96;67.79;101242.03;5025981;28;20496;-67
2022/02/03 12:26:09;;;;;;;20.80;14.40;;;;;;;8.95;68.06;101236.81;5025395;28;20056;-67
2022/02/03 12:28:49;;;;;;;22.05;14.88;;;;;;;9.50;66.96;101222.44;5026095;28;20400;-66
2022/02/03 12:39:07;;;;;;;22.35;14.10;;;;;;;8.48;69.70;101218.31;5023915;28;20053;-64
2022/02/03 12:42:00;;;;;;;18.48;13.07;;;;;;;8.47;70.33;101224.09;5024484;28;20056;-64
2022/02/03 12:44:29;;;;;;;17.73;13.10;;;;;;;8.75;69.88;101220.56;5020047;28;20042;-65
2022/02/03 12:47:02;;;;;;;18.33;13.63;;;;;;;8.60;70.55;101227.00;5029866;28;20053;-64
2022/02/03 12:49:30;;;;;;;21.80;14.10;;;;;;;8.82;69.23;101216.34;5022627;28;20523;-65
2022/02/03 12:51:58;;;;;;;22.40;13.75;;;;;;;8.40;70.78;101223.59;5028579;28;20060;-65
2022/02/03 12:54:26;;;;;;;20.83;14.20;;;;;;;8.31;71.79;101212.41;5025646;28;20445;-65
2022/02/03 12:57:01;;;;;;;18.70;13.43;;;;;;;8.23;71.83;101214.91;5026102;28;20056;-64
2022/02/03 12:59:29;;;;;;;20.23;13.57;;;;;;;8.43;71.35;101215.59;5028600;28;20042;-65
2022/02/03 13:01:56;;;;;;;20.42;13.32;;;;;;;8.50;71.52;101193.31;5024087;28;20049;-65
2022/02/03 13:04:24;;;;;;;20.00;13.65;;;;;;;8.54;71.50;101199.88;5028236;28;20072;-66
2022/02/03 13:07:03;;;;;;;22.48;13.52;;;;;;;8.58;71.31;101196.25;5024634;28;20642;-64
2022/02/03 13:09:40;;;;;;;26.83;15.93;;;;;;;8.86;70.01;101202.84;5026306;28;20064;-64
2022/02/03 13:12:19;;;;;;;24.75;15.13;;;;;;;8.60;70.87;101201.44;5025517;28;20057;-64
2022/02/03 13:14:54;;;;;;;20.95;15.02;;;;;;;8.64;71.74;101200.59;5024714;28;20057;-65
2022/02/03 13:17:27;;;;;;;21.38;14.07;;;;;;;8.81;71.09;101203.72;5023164;28;20057;-64
2022/02/03 13:20:33;;;;;;;18.98;13.75;;;;;;;9.18;70.31;101208.56;5024862;28;20046;-65
2022/02/03 13:23:05;;;;;;;19.35;13.93;;;;;;;9.24;69.07;101196.38;5025874;28;20053;-65
2022/02/03 13:28:49;;;;;;;21.05;13.50;;;;;;;9.32;68.82;101194.91;4938716;28;20055;-64
2022/02/03 13:34:02;;;;;;;20.23;15.10;;;;;;;9.27;69.16;101193.06;5030451;28;20045;-64
2022/02/03 13:36:31;;;;;;;22.77;14.52;;;;;;;8.81;70.24;101197.41;5027677;28;20046;-65
2022/02/03 13:41:40;;;;;;;23.85;13.57;;;;;;;8.37;73.23;101196.72;5025323;28;20516;-64
2022/02/03 13:44:09;;;;;;;31.05;14.13;;;;;;;8.40;73.51;101194.22;5025639;28;20049;-65
2022/02/03 13:46:38;;;;;;;22.30;15.27;;;;;;;8.47;73.39;101180.97;5027058;28;20060;-64
2022/02/03 13:49:21;;;;;;;22.77;15.40;;;;;;;8.75;72.60;101177.41;5024509;28;20299;-64
2022/02/03 13:52:00;;;;;;;23.38;14.65;;;;;;;8.63;72.61;101179.72;5024458;28;20311;-64
2022/02/03 13:54:37;;;;;;;24.95;15.00;;;;;;;8.73;73.16;101179.66;5023806;28;20049;-67
2022/02/03 14:14:37;;;;;;;25.80;15.48;;;;;;;8.85;71.95;101174.56;5021674;28;20050;-63
2022/02/03 14:19:42;;;;;;;24.23;15.20;;;;;;;8.92;72.80;101155.81;5007381;28;20067;-63
2022/02/03 14:22:05;;;;;;;25.83;15.35;;;;;;;9.16;72.58;101147.56;5024810;28;20484;-63
2022/02/03 14:29:49;;;;;;;25.20;15.35;;;;;;;9.24;71.20;101149.66;5004334;28;20654;-63
2022/02/03 14:32:27;;;;;;;24.33;15.07;;;;;;;8.98;71.63;101143.66;5006072;28;20049;-63
2022/02/03 14:34:55;;;;;;;24.80;14.73;;;;;;;9.47;71.17;101136.97;5024939;28;20053;-63
2022/02/03 14:42:45;;;;;;;22.90;13.27;;;;;;;9.15;70.70;101145.09;5024150;28;20049;-63
2022/02/03 14:45:15;;;;;;;21.42;13.98;;;;;;;9.03;71.09;101127.09;5006417;28;20058;-64
2022/02/03 14:47:42;;;;;;;20.65;13.35;;;;;;;9.32;70.65;101132.53;5024804;28;20513;-64
2022/02/03 14:50:11;;;;;;;22.95;13.90;;;;;;;9.52;70.15;101120.44;5012769;28;20049;-63
2022/02/03 14:52:57;;;;;;;20.85;13.43;;;;;;;9.64;70.08;101127.09;5027756;28;20053;-63
2022/02/03 14:58:20;;;;;;;22.98;13.52;;;;;;;9.91;68.63;101121.75;5032823;28;20056;-63
2022/02/03 15:00:49;;;;;;;26.52;17.33;;;;;;;10.01;68.17;101121.59;5034279;28;20049;-64
2022/02/03 15:03:17;;;;;;;23.20;12.20;;;;;;;10.12;67.63;101130.53;5034768;28;20045;-64
2022/02/03 15:05:56;;;;;;;26.25;13.07;;;;;;;9.96;67.97;101123.59;5034624;28;20056;-64
2022/02/03 15:08:56;;;;;;;19.50;12.18;;;;;;;9.88;67.90;101127.03;5034661;28;20053;-64
2022/02/03 15:11:17;;;;;;;24.88;14.70;;;;;;;9.67;68.83;101129.28;5031940;28;20068;-64
2022/02/03 15:13:48;;;;;;;36.38;22.55;;;;;;;10.01;67.94;101135.34;5037208;28;20072;-64
2022/02/03 15:16:15;;;;;;;24.17;15.30;;;;;;;10.13;67.67;101132.97;5031471;28;20068;-64
2022/02/03 15:19:03;;;;;;;24.05;12.30;;;;;;;9.83;67.92;101127.91;5032183;28;20057;-63
2022/02/03 15:21:30;;;;;;;20.20;11.52;;;;;;;10.12;67.44;101127.78;5033345;28;20404;-63
2022/02/03 15:23:58;;;;;;;17.10;11.38;;;;;;;10.53;67.01;101122.41;5033915;28;20041;-64
2022/02/03 15:26:25;;;;;;;17.88;11.18;;;;;;;10.01;67.44;101123.50;5031534;28;20524;-65
2022/02/03 15:28:54;;;;;;;16.60;10.55;;;;;;;9.89;68.15;101131.41;5033789;28;20053;-65
2022/02/03 15:31:26;;;;;;;16.88;10.70;;;;;;;10.01;67.89;101124.34;5015694;28;20049;-65
2022/02/03 15:33:58;;;;;;;16.00;9.68;;;;;;;10.11;67.56;101124.19;5033382;28;20057;-66
2022/02/03 15:36:27;;;;;;;21.92;10.07;;;;;;;10.07;67.28;101125.91;5017729;28;20057;-65
2022/02/03 15:38:55;;;;;;;17.73;9.73;;;;;;;10.09;67.42;101125.63;5017116;28;20056;-64
2022/02/03 15:41:28;;;;;;;17.15;9.57;;;;;;;10.19;67.22;101122.72;5033537;28;20049;-64
2022/02/03 15:43:58;;;;;;;18.70;9.48;;;;;;;10.45;66.56;101115.63;5027356;28;20516;-66
2022/02/03 15:46:27;;;;;;;16.15;9.30;;;;;;;10.24;67.18;101122.63;5026322;28;20054;-66
2022/02/03 15:49:04;;;;;;;16.33;9.77;;;;;;;10.14;67.53;101122.78;5012369;28;20052;-62
2022/02/03 16:02:46;;;;;;;13.95;8.75;;;;;;;9.90;68.70;101130.31;4936421;29;19931;-64
2022/02/03 16:14:11;;;;;;;21.02;14.25;;;;;;;10.30;67.97;101113.16;5035310;28;20057;-65
2022/02/03 16:16:52;;;;;;;17.90;11.18;;;;;;;10.49;66.99;101111.16;5036846;28;20053;-64
2022/02/03 16:19:24;;;;;;;17.88;10.50;;;;;;;10.72;66.68;101101.09;5036439;28;20057;-64
2022/02/03 16:22:22;;;;;;;26.50;18.15;;;;;;;10.63;66.27;101111.19;5031614;28;20053;-65
2022/02/03 16:41:51;;;;;;;17.23;10.85;;;;;;;10.74;66.60;101113.44;5029980;28;20053;-64
2022/02/03 16:54:52;;;;;;;16.13;9.13;;;;;;;10.77;65.96;101125.78;5031247;28;20054;-65
2022/02/03 16:57:23;;;;;;;16.80;10.20;;;;;;;10.93;65.83;101130.69;5010278;28;20049;-64
2022/02/03 16:59:59;;;;;;;13.52;8.57;;;;;;;11.19;65.43;101125.50;5012818;28;20288;-64
2022/02/03 17:02:47;;;;;;;14.38;9.13;;;;;;;10.41;66.69;101128.38;5025623;28;20374;-64
2022/02/03 17:05:14;;;;;;;15.60;9.52;;;;;;;10.74;66.28;101124.44;5033318;28;20049;-64
2022/02/03 17:07:41;;;;;;;20.08;12.88;;;;;;;10.75;66.14;101122.53;5012729;28;20072;-64
2022/02/03 17:10:09;;;;;;;17.17;10.57;;;;;;;10.57;67.07;101121.47;5014123;28;20053;-64
2022/02/03 17:12:36;;;;;;;28.65;18.23;;;;;;;10.95;66.41;101122.94;5030726;28;20060;-64
2022/02/03 17:15:04;;;;;;;16.55;10.20;;;;;;;11.04;65.83;101125.78;5023374;28;20054;-64
2022/02/03 17:17:32;;;;;;;16.30;9.43;;;;;;;11.25;66.65;101130.59;5006914;28;20065;-64
2022/02/03 17:19:59;;;;;;;13.82;9.18;;;;;;;11.51;66.01;101132.78;5001127;28;20053;-64
2022/02/03 17:22:31;;;;;;;14.07;9.07;;;;;;;11.46;65.49;101125.44;5033928;28;20053;-64
2022/02/03 17:27:38;;;;;;;15.00;8.85;;;;;;;11.08;65.60;101133.16;5020015;28;20057;-66
2022/02/03 17:30:12;;;;;;;15.40;8.65;;;;;;;11.08;65.25;101138.69;5020736;28;20064;-73
2022/02/03 18:11:22;;;;;;;13.30;7.45;;;;;;;10.49;68.63;101140.63;5044157;28;20052;-64
2022/02/03 18:30:15;;;;;;;21.33;13.25;;;;;;;10.61;68.67;101151.97;5035334;28;20061;-65
2022/02/03 18:35:27;;;;;;;12.70;8.00;;;;;;;10.49;69.55;101159.91;5026777;28;20192;-66
2022/02/03 18:46:39;;;;;;;15.55;9.27;;;;;;;10.45;70.39;101150.63;5015258;28;20050;-66
2022/02/03 18:52:24;;;;;;;22.45;12.45;;;;;;;10.41;70.97;101164.16;5033047;28;20425;-63
2022/02/03 18:54:50;;;;;;;22.52;15.85;;;;;;;10.39;71.21;101144.38;5019065;28;20065;-64
2022/02/03 19:00:08;;;;;;;25.75;16.65;;;;;;;10.33;71.37;101142.84;5028262;28;20054;-64
2022/02/03 19:24:31;;;;;;;19.95;12.15;;;;;;;9.91;74.01;101156.69;5006212;28;20049;-65
2022/02/03 20:03:42;;;;;;;20.05;13.90;;;;;;;10.22;74.36;101151.59;5034857;28;20492;-65
2022/02/03 20:06:16;;;;;;;23.67;15.00;;;;;;;10.50;74.06;101156.84;5035063;28;20045;-65
2022/02/03 20:11:33;;;;;;;17.23;12.18;;;;;;;9.72;75.81;101166.88;5037910;28;20053;-66
2022/02/03 20:14:01;;;;;;;20.48;12.45;;;;;;;9.63;76.58;101179.66;5038638;28;20049;-63
2022/02/03 20:16:28;;;;;;;16.17;11.73;;;;;;;9.73;76.59;101177.59;5035857;28;20077;-65
2022/02/03 20:18:55;;;;;;;17.95;11.40;;;;;;;9.67;76.59;101184.28;5018363;28;20079;-64
2022/02/03 20:21:24;;;;;;;21.42;13.63;;;;;;;9.59;76.84;101175.88;5026836;28;20060;-65
2022/02/03 20:23:51;;;;;;;21.83;12.20;;;;;;;9.73;77.02;101180.34;5005349;28;20068;-66
2022/02/03 20:26:19;;;;;;;21.70;12.77;;;;;;;9.76;76.60;101170.69;5016275;28;20053;-66
2022/02/03 20:28:47;;;;;;;20.27;12.55;;;;;;;9.60;76.92;101183.00;5013788;28;20654;-65
2022/02/03 20:31:14;;;;;;;27.90;13.07;;;;;;;9.92;76.17;101175.66;5018395;28;20061;-66
2022/02/03 20:33:42;;;;;;;19.40;13.13;;;;;;;9.75;76.19;101183.63;5035979;28;20052;-65
2022/02/03 20:36:09;;;;;;;20.80;13.10;;;;;;;9.65;77.50;101191.19;5035316;28;20064;-66
2022/02/03 20:38:38;;;;;;;24.38;15.43;;;;;;;9.99;76.62;101172.53;5002396;28;20638;-65
2022/02/03 20:41:06;;;;;;;21.17;13.68;;;;;;;9.77;77.36;101175.88;5031567;28;20069;-67
2022/02/03 20:43:33;;;;;;;21.35;14.73;;;;;;;9.69;77.93;101184.00;5033264;28;20041;-67
2022/02/03 20:46:04;;;;;;;24.95;14.18;;;;;;;9.50;78.77;101180.41;5034219;28;20065;-67
2022/02/03 20:48:32;;;;;;;21.15;14.57;;;;;;;9.51;78.80;101188.34;5022744;28;20402;-68
2022/02/03 20:50:59;;;;;;;24.10;14.90;;;;;;;9.75;78.48;101185.53;5009364;28;20053;-68
2022/02/03 20:53:28;;;;;;;21.20;13.88;;;;;;;9.80;77.86;101182.72;5006675;28;20046;-67
2022/02/03 20:55:55;;;;;;;21.13;12.77;;;;;;;9.75;77.76;101188.28;5027634;28;20061;-67
2022/02/03 20:58:23;;;;;;;20.08;13.13;;;;;;;9.83;77.47;101185.69;5029263;28;20053;-67
2022/02/03 21:00:59;;;;;;;17.33;11.65;;;;;;;9.55;78.02;101188.59;5034598;28;20049;-66
2022/02/03 21:03:33;;;;;;;19.90;13.50;;;;;;;9.89;77.29;101187.25;5026704;28;20050;-66
2022/02/03 21:06:02;;;;;;;18.73;12.35;;;;;;;9.74;77.41;101176.50;5035656;28;20080;-65
2022/02/03 21:08:32;;;;;;;27.25;16.48;;;;;;;9.98;77.29;101182.72;5026342;28;20037;-64
2022/02/03 21:11:00;;;;;;;23.65;16.00;;;;;;;10.10;76.33;101180.38;5008832;28;20048;-65
2022/02/03 21:13:27;;;;;;;20.85;13.10;;;;;;;9.84;76.80;101172.75;5033774;28;20060;-66
2022/02/03 21:15:55;;;;;;;32.88;21.67;;;;;;;9.88;76.72;101165.56;5034763;28;20053;-66
2022/02/03 21:18:24;;;;;;;21.85;14.13;;;;;;;9.98;76.63;101182.72;5031802;28;20049;-66
2022/02/03 21:20:51;;;;;;;18.40;12.80;;;;;;;10.04;76.03;101172.47;5027107;28;20061;-65
2022/02/03 21:23:18;;;;;;;19.83;14.23;;;;;;;10.07;75.70;101180.13;5018574;28;20049;-65
2022/02/03 21:25:50;;;;;;;19.45;12.00;;;;;;;9.98;76.06;101184.66;5035379;28;20079;-65
2022/02/03 21:28:45;;;;;;;25.15;16.77;;;;;;;10.10;75.71;101182.31;5034750;28;20046;-65
2022/02/03 21:31:06;;;;;;;20.70;12.55;;;;;;;9.82;77.16;101197.81;5020044;28;20053;-65
2022/02/03 21:33:45;;;;;;;17.38;11.20;;;;;;;9.64;77.43;101189.56;5008923;28;20076;-67
2022/02/03 21:36:13;;;;;;;16.23;10.95;;;;;;;9.60;77.56;101191.25;5017155;28;20404;-64
2022/02/03 21:38:41;;;;;;;15.45;10.95;;;;;;;9.64;77.42;101193.13;5035924;28;20049;-65
2022/02/03 21:41:10;;;;;;;15.95;10.82;;;;;;;9.55;78.12;101191.31;5035137;28;20049;-65
2022/02/03 21:43:37;;;;;;;17.52;10.90;;;;;;;9.49;78.11;101187.81;5035528;28;20060;-64
2022/02/03 21:46:05;;;;;;;17.00;10.70;;;;;;;9.70;78.21;101191.13;5008317;28;20061;-64
2022/02/03 21:48:32;;;;;;;16.50;10.63;;;;;;;9.65;77.99;101199.44;5035044;28;20444;-64
2022/02/03 21:51:01;;;;;;;17.55;11.10;;;;;;;9.60;78.06;101192.09;5036624;28;20052;-65
2022/02/03 21:53:31;;;;;;;16.05;10.80;;;;;;;9.66;78.06;101198.34;5032855;28;20053;-65
2022/02/03 21:56:01;;;;;;;16.70;9.50;;;;;;;9.74;77.91;101194.91;5043153;28;20053;-65
2022/02/03 21:58:28;;;;;;;17.23;10.73;;;;;;;9.92;77.33;101188.63;5034729;28;20108;-65
2022/02/03 22:00:57;;;;;;;18.58;10.65;;;;;;;9.80;77.68;101200.03;5001097;28;20057;-65
2022/02/03 22:03:27;;;;;;;15.23;10.02;;;;;;;9.83;77.77;101199.44;5016648;28;20057;-66
2022/02/03 22:05:55;;;;;;;13.95;9.00;;;;;;;9.75;77.58;101208.38;5034317;28;20064;-65
2022/02/03 22:08:22;;;;;;;13.68;9.75;;;;;;;9.73;77.66;101204.25;5034559;28;20057;-65